• Join FlightAware (Why Join?)
  • Login
  • US Flag 
10:09PM EDT


 

Airport Tracker/Info


-or-


 

Live Flight TrackerFlight Track Log ✈ N231CW ✈ 10-Nov-2013 ✈ T67 - 5C1

Flight Track Log - Related Links

Times and Time Zones

All times are in EST time to prevent confusion due to time zone crossing. See the N231CW flight status page for this flight to view local times or setup timezone preferences in your user account.

Time Position Orientation Groundspeed Altitude Reporting Facility
EST Latitude Longitude Course Direction KTS MPH feet Rate Location/Type
01:12PM 32.8833 -97.4833 248° West 133 153 2,100  Level Dallas / Fort Worth TRACON
01:14PM 32.8667 -97.5333 248° West 139 160 2,500 420 Climbing Dallas / Fort Worth TRACON
01:15PM 32.8417 -97.5817 238° Southwest 141 162 3,300 600 Climbing Fort Worth Center
01:16PM 32.8269 -97.6186 245° Southwest 131 151 3,900 600 Climbing Fort Worth Center
01:17PM 32.8144 -97.6483 243° Southwest 126 145 4,500 600 Climbing Fort Worth Center
01:18PM 32.8039 -97.6878 252° West 121 139 5,100 600 Climbing Fort Worth Center
01:19PM 32.7953 -97.7222 253° West 121 139 5,700 660 Climbing Fort Worth Center
01:20PM 32.7847 -97.7594 251° West 121 139 6,500 660 Climbing Fort Worth Center
01:21PM 32.7764 -97.7914 253° West 116 133 7,100 600 Climbing Fort Worth Center
01:22PM 32.7681 -97.8286 255° West 109 125 7,800 600 Climbing Fort Worth Center
01:23PM 32.7617 -97.8606 257° West 109 125 8,400 600 Climbing Fort Worth Center
01:24PM 32.7489 -97.8975 248° West 109 125 9,000 600 Climbing Fort Worth Center
01:25PM 32.7425 -97.9319 258° West 109 125 9,600 600 Climbing Fort Worth Center
01:26PM 32.7319 -97.9692 251° West 109 125 10,200 540 Climbing Fort Worth Center
01:27PM 32.7172 -98.0011 241° Southwest 109 125 10,700 600 Climbing Fort Worth Center
01:28PM 32.6858 -98.0181 204° Southwest 117 135 11,400 600 Climbing Fort Worth Center
01:29PM 32.6522 -98.0253 190° South 129 148 11,900 540 Climbing Fort Worth Center
01:30PM 32.6147 -98.0275 183° South 134 154 12,600 600 Climbing Fort Worth Center
01:31PM 32.5814 -98.0372 194° South 134 154 13,100 600 Climbing Fort Worth Center
01:32PM 32.5478 -98.0444 190° South 129 148 13,800 420 Climbing Fort Worth Center
01:33PM 32.5144 -98.0539 193° South 126 145 14,000 60 Climbing Fort Worth Center
01:34PM 32.4683 -98.0708 197° South 156 180 14,000  Level Fort Worth Center
01:35PM 32.4225 -98.0828 192° South 171 197 14,000  Level Fort Worth Center
01:36PM 32.3764 -98.0947 192° South 171 197 14,000  Level Fort Worth Center
01:37PM 32.3325 -98.1067 193° South 171 197 14,000  Level Fort Worth Center
01:38PM 32.2864 -98.1186 192° South 171 197 14,000  Level Fort Worth Center
01:39PM 32.2406 -98.1306 192° South 171 197 14,000  Level Fort Worth Center
01:40PM 32.2008 -98.1450 197° South 171 197 14,000  Level Fort Worth Center
01:41PM 32.1569 -98.1544 190° South 166 191 14,000  Level Fort Worth Center
01:42PM 32.1128 -98.1689 195° South 166 191 14,000  Level Fort Worth Center
01:43PM 32.0647 -98.1831 194° South 166 191 14,000  Level Fort Worth Center
01:44PM 32.0189 -98.1950 192° South 166 191 14,000  Level Fort Worth Center
01:45PM 31.9728 -98.2069 192° South 166 191 14,000  Level Fort Worth Center
01:46PM 31.9247 -98.2186 192° South 166 191 14,000  Level Fort Worth Center
01:47PM 31.8786 -98.2331 195° South 172 198 14,000  Level Fort Worth Center
01:48PM 31.8328 -98.2422 190° South 172 198 14,000  Level Fort Worth Center
01:49PM 31.7867 -98.2589 197° South 167 192 14,000  Level Fort Worth Center
01:50PM 31.7406 -98.2683 190° South 167 192 14,000  Level Fort Worth Center
01:51PM 31.6989 -98.2825 196° South 167 192 14,000  Level Fort Worth Center
01:52PM 31.6528 -98.2944 192° South 167 192 14,000  Level Fort Worth Center
01:53PM 31.6067 -98.3086 195° South 167 192 14,000  Level Fort Worth Center
01:55PM 31.5089 -98.3350 193° South 166 191 14,000  Level Houston Center
01:56PM 31.4642 -98.3483 194° South 165 190 14,000  Level Houston Center
01:57PM 31.4111 -98.3636 194° South 167 192 14,000  Level Houston Center
01:58PM 31.3647 -98.3761 193° South 167 192 14,000  Level Houston Center
01:59PM 31.3200 -98.3894 194° South 165 190 14,000  Level Houston Center
02:00PM 31.2756 -98.4022 194° South 164 189 14,000  Level Houston Center
02:01PM 31.2303 -98.4156 194° South 165 190 14,000 -60 Level Houston Center
02:02PM 31.1847 -98.4278 193° South 165 190 13,900 -60 Descending Houston Center
02:04PM 31.1317 -98.4433 194° South 166 191 13,900  Level Houston Center
02:05PM 31.0867 -98.4564 194° South 166 191 13,900  Level Houston Center
02:06PM 31.0425 -98.4694 194° South 164 189 13,900  Level Houston Center
02:07PM 30.9964 -98.4825 194° South 167 192 13,900  Level Houston Center
02:08PM 30.9522 -98.4953 194° South 165 190 13,900  Level Houston Center
02:09PM 30.9058 -98.5094 195° South 169 194 13,900  Level Houston Center
02:10PM 30.8611 -98.5206 192° South 165 190 13,900  Level Houston Center
02:11PM 30.8081 -98.5364 194° South 167 192 13,900  Level Houston Center
02:12PM 30.7633 -98.5494 194° South 166 191 13,900  Level Houston Center
02:13PM 30.7186 -98.5622 194° South 165 190 13,900  Level Houston Center
02:14PM 30.6739 -98.5753 194° South 164 189 13,900  Level Houston Center
02:15PM 30.6289 -98.5878 193° South 165 190 13,900  Level Houston Center
02:16PM 30.5836 -98.6000 193° South 166 191 13,900 -240 Level Houston Center
02:17PM 30.5381 -98.6119 193° South 166 191 13,500 -900 Descending Houston Center
02:18PM 30.4753 -98.6317 195° South 198 228 12,100 -1,320 Descending Houston Center
02:19PM 30.4153 -98.6483 193° South 218 251 10,800 -1,500 Descending Houston Center
02:20PM 30.3603 -98.6622 192° South 203 234 9,100 -1,560 Descending Houston Center
02:21PM 30.3092 -98.6736 191° South 183 211 7,600 -1,560 Descending Houston Center
02:21PM 30.2939 -98.6800 200° South 177 204 7,100 -1,200 Descending Houston Center
02:22PM 30.2531 -98.6922 194° South 167 192 6,200 -720 Descending Houston Center
02:23PM 30.2167 -98.7011 192° South 154 177 5,900 -300 Descending Houston Center
02:23PM 30.2119 -98.7019 189° South 146 168 5,900  Level Houston Center
02:24PM 30.1728 -98.7092 189° South 135 155 5,900  Level Houston Center
02:25PM 30.1372 -98.7061 176° South 138 159 5,900  Level Houston Center
02:25PM 30.1350 -98.7086 224° Southwest 138 159 5,900 -120 Level Houston Center
02:26PM 30.0986 -98.7083 180° South 129 148 5,800 -120 Descending Houston Center
02:26PM 30.0972 -98.7083 180° South 129 148 5,800 -780 Level Houston Center
02:27PM 30.0597 -98.7117 184° South 139 160 5,000 -840 Descending Houston Center
02:27PM 30.0575 -98.7106 157° South 139 160 5,000 -900 Level Houston Center
02:28PM 30.0114 -98.7136 183° South 170 196 4,100 -600 Descending Houston Center
02:29PM 29.9675 -98.7142 181° South 157 181 3,800 -300 Descending Houston Center
02:29PM 29.9681 -98.7131 60° Northeast 157 181 3,800 60 Level Houston Center
02:30PM 29.9297 -98.7139 181° South 134 154 3,900  Climbing Houston Center
02:31PM 29.9003 -98.7147 181° South 112 129 3,900  Level Houston Center
02:31PM 29.8983 -98.7136 154° Southeast 117 135 3,900 -600 Level Houston Center
02:32PM 29.8644 -98.7117 177° South 126 145 3,300 -720 Descending Houston Center
02:33PM 29.8622 -98.7089 133° Southeast 121 139 3,200 -600 Descending Houston Center
02:33PM 29.8242 -98.7069 177° South 150 173 2,700 -540 Descending Houston Center
02:34PM 29.8217 -98.7050 146° Southeast 142 163 2,700  Level Houston Center